sensor_id;sensor_type;location;lat;lon;timestamp;pressure;altitude;pressure_sealevel;temperature;humidity
65019;BME280;66069;51.164;-114.452;2023-02-18T00:01:27;87555.19;;;16.38;41.32
65019;BME280;66069;51.164;-114.452;2023-02-18T00:03:58;87551.13;;;16.34;41.21
65019;BME280;66069;51.164;-114.452;2023-02-18T00:06:27;87548.47;;;16.34;41.41
65019;BME280;66069;51.164;-114.452;2023-02-18T00:08:55;87550.00;;;16.31;41.46
65019;BME280;66069;51.164;-114.452;2023-02-18T00:11:23;87550.13;;;16.24;41.25
65019;BME280;66069;51.164;-114.452;2023-02-18T00:13:52;87553.84;;;16.27;41.48
65019;BME280;66069;51.164;-114.452;2023-02-18T00:16:19;87534.66;;;16.23;41.64
65019;BME280;66069;51.164;-114.452;2023-02-18T00:18:45;87543.97;;;16.31;41.34
65019;BME280;66069;51.164;-114.452;2023-02-18T00:21:12;87540.94;;;16.32;41.36
65019;BME280;66069;51.164;-114.452;2023-02-18T00:23:38;87521.38;;;16.26;41.35
65019;BME280;66069;51.164;-114.452;2023-02-18T00:26:10;87515.03;;;16.20;41.15
65019;BME280;66069;51.164;-114.452;2023-02-18T00:28:39;87500.72;;;16.18;41.36
65019;BME280;66069;51.164;-114.452;2023-02-18T00:31:12;87519.88;;;16.25;41.22
65019;BME280;66069;51.164;-114.452;2023-02-18T00:33:41;87522.88;;;16.27;41.49
65019;BME280;66069;51.164;-114.452;2023-02-18T00:36:10;87503.78;;;16.16;41.35
65019;BME280;66069;51.164;-114.452;2023-02-18T00:38:37;87522.09;;;16.27;41.38
65019;BME280;66069;51.164;-114.452;2023-02-18T00:41:04;87514.19;;;16.27;41.43
65019;BME280;66069;51.164;-114.452;2023-02-18T00:43:30;87511.66;;;16.20;41.32
65019;BME280;66069;51.164;-114.452;2023-02-18T00:45:56;87507.09;;;16.20;41.41
65019;BME280;66069;51.164;-114.452;2023-02-18T00:48:23;87504.13;;;16.18;41.38
65019;BME280;66069;51.164;-114.452;2023-02-18T00:50:49;87516.59;;;16.18;41.40
65019;BME280;66069;51.164;-114.452;2023-02-18T00:53:15;87504.94;;;16.15;41.38
65019;BME280;66069;51.164;-114.452;2023-02-18T00:55:43;87522.19;;;16.23;41.34
65019;BME280;66069;51.164;-114.452;2023-02-18T00:58:10;87505.31;;;16.13;41.34
65019;BME280;66069;51.164;-114.452;2023-02-18T01:00:37;87519.56;;;16.20;41.35
65019;BME280;66069;51.164;-114.452;2023-02-18T01:03:04;87511.00;;;16.12;41.19
65019;BME280;66069;51.164;-114.452;2023-02-18T01:05:32;87500.19;;;16.03;41.14
65019;BME280;66069;51.164;-114.452;2023-02-18T01:07:58;87521.25;;;16.10;41.32
65019;BME280;66069;51.164;-114.452;2023-02-18T01:10:24;87524.22;;;16.12;41.32
65019;BME280;66069;51.164;-114.452;2023-02-18T01:12:51;87534.78;;;16.15;41.15
65019;BME280;66069;51.164;-114.452;2023-02-18T01:15:17;87532.50;;;16.14;41.36
65019;BME280;66069;51.164;-114.452;2023-02-18T01:17:44;87532.22;;;16.08;41.21
65019;BME280;66069;51.164;-114.452;2023-02-18T01:20:11;87531.75;;;16.13;41.46
65019;BME280;66069;51.164;-114.452;2023-02-18T01:22:37;87543.44;;;16.16;41.29
65019;BME280;66069;51.164;-114.452;2023-02-18T01:25:04;87520.19;;;16.04;41.37
65019;BME280;66069;51.164;-114.452;2023-02-18T01:27:31;87527.72;;;16.05;41.45
65019;BME280;66069;51.164;-114.452;2023-02-18T01:29:57;87529.97;;;16.07;41.28
65019;BME280;66069;51.164;-114.452;2023-02-18T01:32:23;87534.16;;;16.04;41.49
65019;BME280;66069;51.164;-114.452;2023-02-18T01:34:50;87539.06;;;16.06;41.36
65019;BME280;66069;51.164;-114.452;2023-02-18T01:37:16;87533.34;;;16.07;41.34
65019;BME280;66069;51.164;-114.452;2023-02-18T01:39:42;87545.44;;;16.08;41.29
65019;BME280;66069;51.164;-114.452;2023-02-18T01:42:24;87534.59;;;16.03;41.17
65019;BME280;66069;51.164;-114.452;2023-02-18T01:44:51;87544.31;;;16.09;41.37
65019;BME280;66069;51.164;-114.452;2023-02-18T01:47:18;87536.06;;;16.04;41.34
65019;BME280;66069;51.164;-114.452;2023-02-18T01:49:49;87537.16;;;16.06;41.10
65019;BME280;66069;51.164;-114.452;2023-02-18T01:52:21;87539.88;;;16.03;40.99
65019;BME280;66069;51.164;-114.452;2023-02-18T01:54:56;87530.88;;;15.97;41.26
65019;BME280;66069;51.164;-114.452;2023-02-18T01:57:34;87535.38;;;16.00;41.00
65019;BME280;66069;51.164;-114.452;2023-02-18T02:00:13;87527.13;;;15.94;41.03
65019;BME280;66069;51.164;-114.452;2023-02-18T02:02:43;87516.22;;;15.92;41.17
65019;BME280;66069;51.164;-114.452;2023-02-18T02:05:10;87531.56;;;16.01;41.21
65019;BME280;66069;51.164;-114.452;2023-02-18T02:07:38;87523.75;;;15.94;41.11
65019;BME280;66069;51.164;-114.452;2023-02-18T02:10:06;87531.22;;;15.99;40.95
65019;BME280;66069;51.164;-114.452;2023-02-18T02:15:29;87523.63;;;16.01;41.15
65019;BME280;66069;51.164;-114.452;2023-02-18T02:18:04;87520.66;;;15.99;41.01
65019;BME280;66069;51.164;-114.452;2023-02-18T02:29:00;87516.50;;;15.98;41.11
65019;BME280;66069;51.164;-114.452;2023-02-18T02:34:37;87512.31;;;16.00;41.70
65019;BME280;66069;51.164;-114.452;2023-02-18T02:37:18;87496.16;;;15.95;42.22
65019;BME280;66069;51.164;-114.452;2023-02-18T02:43:11;87484.41;;;15.96;42.72
65019;BME280;66069;51.164;-114.452;2023-02-18T02:51:23;87491.91;;;16.01;42.78
65019;BME280;66069;51.164;-114.452;2023-02-18T02:53:50;87475.69;;;15.99;43.20
65019;BME280;66069;51.164;-114.452;2023-02-18T02:56:19;87483.19;;;16.04;43.27
65019;BME280;66069;51.164;-114.452;2023-02-18T02:58:55;87471.50;;;16.01;43.29
65019;BME280;66069;51.164;-114.452;2023-02-18T03:04:55;87487.16;;;16.15;43.33
65019;BME280;66069;51.164;-114.452;2023-02-18T03:18:14;87482.16;;;16.21;43.35
65019;BME280;66069;51.164;-114.452;2023-02-18T03:20:50;87464.84;;;16.17;43.38
65019;BME280;66069;51.164;-114.452;2023-02-18T03:23:24;87462.88;;;16.21;43.54
65019;BME280;66069;51.164;-114.452;2023-02-18T03:25:53;87455.03;;;16.17;43.73
65019;BME280;66069;51.164;-114.452;2023-02-18T03:28:22;87438.13;;;16.11;43.65
65019;BME280;66069;51.164;-114.452;2023-02-18T03:30:59;87455.75;;;16.18;43.81
65019;BME280;66069;51.164;-114.452;2023-02-18T03:33:34;87470.66;;;16.31;43.87
65019;BME280;66069;51.164;-114.452;2023-02-18T03:36:02;87454.09;;;16.27;43.48
65019;BME280;66069;51.164;-114.452;2023-02-18T03:41:04;87446.56;;;16.26;44.37
65019;BME280;66069;51.164;-114.452;2023-02-18T03:43:31;87432.59;;;16.25;44.05
65019;BME280;66069;51.164;-114.452;2023-02-18T03:45:58;87451.72;;;16.33;44.16
65019;BME280;66069;51.164;-114.452;2023-02-18T03:48:25;87434.78;;;16.30;44.28
65019;BME280;66069;51.164;-114.452;2023-02-18T03:50:51;87447.94;;;16.34;44.23
65019;BME280;66069;51.164;-114.452;2023-02-18T03:53:18;87438.50;;;16.33;44.22
65019;BME280;66069;51.164;-114.452;2023-02-18T03:55:44;87441.78;;;16.40;44.43
65019;BME280;66069;51.164;-114.452;2023-02-18T03:58:10;87442.91;;;16.39;44.68
65019;BME280;66069;51.164;-114.452;2023-02-18T04:00:37;87443.94;;;16.46;44.59
65019;BME280;66069;51.164;-114.452;2023-02-18T04:03:03;87420.63;;;16.40;44.76
65019;BME280;66069;51.164;-114.452;2023-02-18T04:05:29;87428.47;;;16.44;44.89
65019;BME280;66069;51.164;-114.452;2023-02-18T04:07:56;87425.03;;;16.47;44.82
65019;BME280;66069;51.164;-114.452;2023-02-18T04:10:22;87424.63;;;16.49;44.86
65019;BME280;66069;51.164;-114.452;2023-02-18T04:12:48;87413.72;;;16.47;44.57
65019;BME280;66069;51.164;-114.452;2023-02-18T04:15:15;87423.69;;;16.59;44.60
65019;BME280;66069;51.164;-114.452;2023-02-18T04:17:41;87403.03;;;16.50;44.81
65019;BME280;66069;51.164;-114.452;2023-02-18T04:20:08;87413.13;;;16.59;44.92
65019;BME280;66069;51.164;-114.452;2023-02-18T04:22:34;87419.81;;;16.63;44.99
65019;BME280;66069;51.164;-114.452;2023-02-18T04:25:00;87395.38;;;16.56;44.74
65019;BME280;66069;51.164;-114.452;2023-02-18T04:27:27;87400.22;;;16.61;44.81
65019;BME280;66069;51.164;-114.452;2023-02-18T04:29:53;87397.25;;;16.59;44.76
65019;BME280;66069;51.164;-114.452;2023-02-18T04:32:19;87385.91;;;16.58;44.67
65019;BME280;66069;51.164;-114.452;2023-02-18T04:34:46;87397.09;;;16.66;44.69
65019;BME280;66069;51.164;-114.452;2023-02-18T04:37:12;87383.59;;;16.60;44.70
65019;BME280;66069;51.164;-114.452;2023-02-18T04:39:38;87378.63;;;16.62;44.66
65019;BME280;66069;51.164;-114.452;2023-02-18T04:42:05;87378.22;;;16.64;44.78
65019;BME280;66069;51.164;-114.452;2023-02-18T04:44:37;87377.47;;;16.63;44.71
65019;BME280;66069;51.164;-114.452;2023-02-18T04:47:04;87388.63;;;16.75;44.98
65019;BME280;66069;51.164;-114.452;2023-02-18T04:49:31;87385.56;;;16.76;44.86
65019;BME280;66069;51.164;-114.452;2023-02-18T04:51:58;87368.72;;;16.66;44.75
65019;BME280;66069;51.164;-114.452;2023-02-18T04:54:24;87372.44;;;16.69;44.76
65019;BME280;66069;51.164;-114.452;2023-02-18T04:56:50;87368.63;;;16.74;44.44
65019;BME280;66069;51.164;-114.452;2023-02-18T04:59:17;87358.47;;;16.68;44.43
65019;BME280;66069;51.164;-114.452;2023-02-18T05:01:43;87357.31;;;16.69;44.47
65019;BME280;66069;51.164;-114.452;2023-02-18T05:04:09;87354.63;;;16.73;44.51
65019;BME280;66069;51.164;-114.452;2023-02-18T05:06:35;87359.19;;;16.73;44.29
65019;BME280;66069;51.164;-114.452;2023-02-18T05:09:04;87347.09;;;16.72;44.24
65019;BME280;66069;51.164;-114.452;2023-02-18T05:11:31;87350.84;;;16.74;44.28
65019;BME280;66069;51.164;-114.452;2023-02-18T05:13:57;87344.72;;;16.77;44.17
65019;BME280;66069;51.164;-114.452;2023-02-18T05:16:23;87337.19;;;16.76;44.17
65019;BME280;66069;51.164;-114.452;2023-02-18T05:18:50;87337.91;;;16.76;44.19
65019;BME280;66069;51.164;-114.452;2023-02-18T05:21:16;87325.84;;;16.75;44.06
65019;BME280;66069;51.164;-114.452;2023-02-18T05:23:42;87342.88;;;16.74;43.79
65019;BME280;66069;51.164;-114.452;2023-02-18T05:26:09;87331.50;;;16.77;44.17
65019;BME280;66069;51.164;-114.452;2023-02-18T05:28:35;87319.47;;;16.73;43.99
65019;BME280;66069;51.164;-114.452;2023-02-18T05:31:02;87324.34;;;16.74;44.02
65019;BME280;66069;51.164;-114.452;2023-02-18T05:33:28;87318.03;;;16.68;43.93
65019;BME280;66069;51.164;-114.452;2023-02-18T05:35:55;87322.03;;;16.76;43.94
65019;BME280;66069;51.164;-114.452;2023-02-18T05:38:21;87326.53;;;16.79;43.97
65019;BME280;66069;51.164;-114.452;2023-02-18T05:40:47;87303.31;;;16.67;43.82
65019;BME280;66069;51.164;-114.452;2023-02-18T05:43:14;87313.72;;;16.78;43.88
65019;BME280;66069;51.164;-114.452;2023-02-18T05:45:44;87314.09;;;16.76;44.14
65019;BME280;66069;51.164;-114.452;2023-02-18T05:48:10;87294.94;;;16.68;43.73
65019;BME280;66069;51.164;-114.452;2023-02-18T05:50:36;87297.59;;;16.68;43.75
65019;BME280;66069;51.164;-114.452;2023-02-18T05:53:03;87299.03;;;16.73;43.87
65019;BME280;66069;51.164;-114.452;2023-02-18T05:55:29;87294.19;;;16.68;43.71
65019;BME280;66069;51.164;-114.452;2023-02-18T05:57:55;87298.72;;;16.71;43.80
65019;BME280;66069;51.164;-114.452;2023-02-18T06:00:22;87295.69;;;16.69;43.83
65019;BME280;66069;51.164;-114.452;2023-02-18T06:02:48;87289.38;;;16.63;43.60
65019;BME280;66069;51.164;-114.452;2023-02-18T06:05:14;87278.19;;;16.55;43.71
65019;BME280;66069;51.164;-114.452;2023-02-18T06:07:41;87282.53;;;16.65;43.54
65019;BME280;66069;51.164;-114.452;2023-02-18T06:10:08;87295.66;;;16.73;43.66
65019;BME280;66069;51.164;-114.452;2023-02-18T06:12:34;87277.16;;;16.69;43.63
65019;BME280;66069;51.164;-114.452;2023-02-18T06:15:00;87284.31;;;16.72;43.67
65019;BME280;66069;51.164;-114.452;2023-02-18T06:17:27;87265.25;;;16.61;43.65
65019;BME280;66069;51.164;-114.452;2023-02-18T06:19:53;87271.94;;;16.65;43.55
65019;BME280;66069;51.164;-114.452;2023-02-18T06:22:19;87271.94;;;16.65;43.65
65019;BME280;66069;51.164;-114.452;2023-02-18T06:24:47;87270.94;;;16.59;43.65
65019;BME280;66069;51.164;-114.452;2023-02-18T06:27:13;87272.75;;;16.62;43.58
65019;BME280;66069;51.164;-114.452;2023-02-18T06:29:39;87264.56;;;16.57;43.58
65019;BME280;66069;51.164;-114.452;2023-02-18T06:32:05;87265.91;;;16.65;43.46
65019;BME280;66069;51.164;-114.452;2023-02-18T06:34:32;87258.09;;;16.58;43.61
65019;BME280;66069;51.164;-114.452;2023-02-18T06:36:58;87261.91;;;16.57;43.42
65019;BME280;66069;51.164;-114.452;2023-02-18T06:39:24;87246.19;;;16.50;43.45
65019;BME280;66069;51.164;-114.452;2023-02-18T06:41:54;87266.41;;;16.60;43.40
65019;BME280;66069;51.164;-114.452;2023-02-18T06:44:20;87261.09;;;16.60;43.52
65019;BME280;66069;51.164;-114.452;2023-02-18T06:46:46;87255.97;;;16.53;43.49
65019;BME280;66069;51.164;-114.452;2023-02-18T06:49:13;87251.31;;;16.57;43.38
65019;BME280;66069;51.164;-114.452;2023-02-18T06:51:39;87249.56;;;16.50;43.44
65019;BME280;66069;51.164;-114.452;2023-02-18T06:54:05;87261.44;;;16.62;43.45
65019;BME280;66069;51.164;-114.452;2023-02-18T06:56:32;87245.75;;;16.51;43.49
65019;BME280;66069;51.164;-114.452;2023-02-18T06:58:58;87239.81;;;16.47;43.34
65019;BME280;66069;51.164;-114.452;2023-02-18T07:01:24;87238.66;;;16.48;43.41
65019;BME280;66069;51.164;-114.452;2023-02-18T07:03:51;87238.94;;;16.54;43.47
65019;BME280;66069;51.164;-114.452;2023-02-18T07:06:17;87243.78;;;16.55;43.44
65019;BME280;66069;51.164;-114.452;2023-02-18T07:08:43;87222.84;;;16.45;43.39
65019;BME280;66069;51.164;-114.452;2023-02-18T07:11:09;87234.78;;;16.53;43.46
65019;BME280;66069;51.164;-114.452;2023-02-18T07:13:36;87234.03;;;16.52;43.49
65019;BME280;66069;51.164;-114.452;2023-02-18T07:16:02;87222.44;;;16.46;43.30
65019;BME280;66069;51.164;-114.452;2023-02-18T07:18:29;87226.97;;;16.46;43.41
65019;BME280;66069;51.164;-114.452;2023-02-18T07:20:55;87235.19;;;16.51;43.77
65019;BME280;66069;51.164;-114.452;2023-02-18T07:23:21;87222.84;;;16.45;43.32
65019;BME280;66069;51.164;-114.452;2023-02-18T07:25:47;87207.44;;;16.39;43.42
65019;BME280;66069;51.164;-114.452;2023-02-18T07:28:14;87226.84;;;16.53;43.34
65019;BME280;66069;51.164;-114.452;2023-02-18T07:30:40;87223.53;;;16.49;43.29
65019;BME280;66069;51.164;-114.452;2023-02-18T07:33:06;87221.03;;;16.41;43.31
65019;BME280;66069;51.164;-114.452;2023-02-18T07:35:33;87224.28;;;16.49;43.30
65019;BME280;66069;51.164;-114.452;2023-02-18T07:37:59;87193.22;;;16.33;43.32
65019;BME280;66069;51.164;-114.452;2023-02-18T07:40:27;87206.38;;;16.37;43.26
65019;BME280;66069;51.164;-114.452;2023-02-18T07:42:54;87216.06;;;16.43;43.23
65019;BME280;66069;51.164;-114.452;2023-02-18T07:45:20;87211.88;;;16.46;43.24
65019;BME280;66069;51.164;-114.452;2023-02-18T07:47:46;87181.66;;;16.27;43.06
65019;BME280;66069;51.164;-114.452;2023-02-18T07:50:13;87210.09;;;16.39;43.31
65019;BME280;66069;51.164;-114.452;2023-02-18T07:52:39;87198.75;;;16.39;43.21
65019;BME280;66069;51.164;-114.452;2023-02-18T07:55:06;87194.63;;;16.38;43.35
65019;BME280;66069;51.164;-114.452;2023-02-18T07:57:32;87194.31;;;16.36;43.00
65019;BME280;66069;51.164;-114.452;2023-02-18T08:00:18;87199.19;;;16.37;43.25
65019;BME280;66069;51.164;-114.452;2023-02-18T08:02:44;87183.13;;;16.28;43.08
65019;BME280;66069;51.164;-114.452;2023-02-18T08:05:11;87192.13;;;16.31;43.33
65019;BME280;66069;51.164;-114.452;2023-02-18T08:07:39;87181.56;;;16.31;43.31
65019;BME280;66069;51.164;-114.452;2023-02-18T08:10:06;87187.13;;;16.36;43.15
65019;BME280;66069;51.164;-114.452;2023-02-18T08:12:32;87183.88;;;16.29;43.15
65019;BME280;66069;51.164;-114.452;2023-02-18T08:14:58;87173.03;;;16.23;43.16
65019;BME280;66069;51.164;-114.452;2023-02-18T08:17:24;87182.72;;;16.30;43.23
65019;BME280;66069;51.164;-114.452;2023-02-18T08:19:51;87184.63;;;16.29;43.14
65019;BME280;66069;51.164;-114.452;2023-02-18T08:22:17;87203.78;;;16.33;43.21
65019;BME280;66069;51.164;-114.452;2023-02-18T08:24:43;87166.41;;;16.15;43.26
65019;BME280;66069;51.164;-114.452;2023-02-18T08:27:10;87186.84;;;16.31;43.10
65019;BME280;66069;51.164;-114.452;2023-02-18T08:29:38;87175.25;;;16.25;43.02
65019;BME280;66069;51.164;-114.452;2023-02-18T08:32:04;87172.28;;;16.23;43.20
65019;BME280;66069;51.164;-114.452;2023-02-18T08:34:30;87185.84;;;16.25;43.16
65019;BME280;66069;51.164;-114.452;2023-02-18T08:36:56;87185.09;;;16.24;43.18
65019;BME280;66069;51.164;-114.452;2023-02-18T08:39:23;87178.47;;;16.16;43.20
65019;BME280;66069;51.164;-114.452;2023-02-18T08:41:49;87164.56;;;16.12;43.27
65019;BME280;66069;51.164;-114.452;2023-02-18T08:44:15;87173.56;;;16.14;43.06
65019;BME280;66069;51.164;-114.452;2023-02-18T08:46:42;87190.13;;;16.19;42.97
65019;BME280;66069;51.164;-114.452;2023-02-18T08:49:08;87174.72;;;16.13;43.18
65019;BME280;66069;51.164;-114.452;2023-02-18T08:51:34;87164.91;;;16.14;43.12
65019;BME280;66069;51.164;-114.452;2023-02-18T08:54:01;87168.97;;;16.19;43.02
65019;BME280;66069;51.164;-114.452;2023-02-18T08:56:27;87161.44;;;16.17;43.04
65019;BME280;66069;51.164;-114.452;2023-02-18T08:58:54;87159.22;;;16.15;43.24
65019;BME280;66069;51.164;-114.452;2023-02-18T09:01:20;87153.56;;;16.13;43.14
65019;BME280;66069;51.164;-114.452;2023-02-18T09:03:46;87158.13;;;16.13;43.26
65019;BME280;66069;51.164;-114.452;2023-02-18T09:06:13;87158.88;;;16.13;43.11
65019;BME280;66069;51.164;-114.452;2023-02-18T09:08:39;87156.63;;;16.12;43.19
65019;BME280;66069;51.164;-114.452;2023-02-18T09:11:06;87149.19;;;16.07;43.27
65019;BME280;66069;51.164;-114.452;2023-02-18T09:13:32;87142.00;;;16.07;43.14
65019;BME280;66069;51.164;-114.452;2023-02-18T09:16:04;87148.84;;;16.05;43.05
65019;BME280;66069;51.164;-114.452;2023-02-18T09:18:31;87151.41;;;16.08;43.21
65019;BME280;66069;51.164;-114.452;2023-02-18T09:21:00;87143.88;;;16.07;43.14
65019;BME280;66069;51.164;-114.452;2023-02-18T09:23:28;87131.25;;;15.98;43.07
65019;BME280;66069;51.164;-114.452;2023-02-18T09:25:55;87142.09;;;16.04;43.02
65019;BME280;66069;51.164;-114.452;2023-02-18T09:28:23;87145.47;;;16.04;43.10
65019;BME280;66069;51.164;-114.452;2023-02-18T09:30:50;87124.47;;;15.97;43.25
65019;BME280;66069;51.164;-114.452;2023-02-18T09:33:17;87137.84;;;16.06;43.28
65019;BME280;66069;51.164;-114.452;2023-02-18T09:35:45;87134.88;;;16.04;42.97
65019;BME280;66069;51.164;-114.452;2023-02-18T09:38:14;87134.06;;;16.07;43.18
65019;BME280;66069;51.164;-114.452;2023-02-18T09:40:47;87135.63;;;16.05;43.06
65019;BME280;66069;51.164;-114.452;2023-02-18T09:46:04;87118.09;;;15.95;43.19
65019;BME280;66069;51.164;-114.452;2023-02-18T09:48:34;87119.09;;;16.01;43.05
65019;BME280;66069;51.164;-114.452;2023-02-18T09:51:01;87117.19;;;16.01;42.98
65019;BME280;66069;51.164;-114.452;2023-02-18T09:53:27;87118.34;;;16.00;43.28
65019;BME280;66069;51.164;-114.452;2023-02-18T09:55:56;87100.00;;;15.93;43.10
65019;BME280;66069;51.164;-114.452;2023-02-18T09:58:29;87115.69;;;16.00;43.06
65019;BME280;66069;51.164;-114.452;2023-02-18T10:03:40;87107.91;;;15.93;43.06
65019;BME280;66069;51.164;-114.452;2023-02-18T10:06:21;87106.03;;;15.94;43.07
65019;BME280;66069;51.164;-114.452;2023-02-18T10:08:49;87101.84;;;15.96;43.01
65019;BME280;66069;51.164;-114.452;2023-02-18T10:11:32;87096.59;;;15.93;43.04
65019;BME280;66069;51.164;-114.452;2023-02-18T10:14:00;87100.47;;;15.88;43.33
65019;BME280;66069;51.164;-114.452;2023-02-18T10:16:28;87098.25;;;15.86;43.12
65019;BME280;66069;51.164;-114.452;2023-02-18T10:19:00;87091.06;;;15.87;43.07
65019;BME280;66069;51.164;-114.452;2023-02-18T10:21:33;87096.34;;;15.87;43.21
65019;BME280;66069;51.164;-114.452;2023-02-18T10:26:33;87083.28;;;15.80;43.32
65019;BME280;66069;51.164;-114.452;2023-02-18T10:29:00;87095.28;;;15.84;42.96
65019;BME280;66069;51.164;-114.452;2023-02-18T10:31:37;87079.00;;;15.86;43.25
65019;BME280;66069;51.164;-114.452;2023-02-18T10:34:18;87070.13;;;15.76;43.06
65019;BME280;66069;51.164;-114.452;2023-02-18T10:36:57;87086.94;;;15.86;43.07
65019;BME280;66069;51.164;-114.452;2023-02-18T10:39:44;87074.94;;;15.81;43.12
65019;BME280;66069;51.164;-114.452;2023-02-18T10:50:34;87064.44;;;15.78;42.89
65019;BME280;66069;51.164;-114.452;2023-02-18T10:55:55;87059.97;;;15.75;43.08
65019;BME280;66069;51.164;-114.452;2023-02-18T10:58:27;87039.47;;;15.63;43.14
65019;BME280;66069;51.164;-114.452;2023-02-18T11:00:54;87060.72;;;15.75;42.86
65019;BME280;66069;51.164;-114.452;2023-02-18T11:03:23;87055.75;;;15.77;42.79
65019;BME280;66069;51.164;-114.452;2023-02-18T11:05:54;87051.34;;;15.71;43.04
65019;BME280;66069;51.164;-114.452;2023-02-18T11:08:26;87052.47;;;15.73;43.11
65019;BME280;66069;51.164;-114.452;2023-02-18T11:10:54;87059.56;;;15.76;43.14
65019;BME280;66069;51.164;-114.452;2023-02-18T11:13:29;87049.22;;;15.66;43.02
65019;BME280;66069;51.164;-114.452;2023-02-18T11:16:06;87056.59;;;15.74;42.93
65019;BME280;66069;51.164;-114.452;2023-02-18T11:18:44;87044.25;;;15.68;42.94
65019;BME280;66069;51.164;-114.452;2023-02-18T11:21:30;87057.00;;;15.73;43.05
65019;BME280;66069;51.164;-114.452;2023-02-18T11:23:57;87051.03;;;15.69;42.76
65019;BME280;66069;51.164;-114.452;2023-02-18T11:26:32;87056.25;;;15.72;43.12
65019;BME280;66069;51.164;-114.452;2023-02-18T11:29:05;87037.19;;;15.61;43.16
65019;BME280;66069;51.164;-114.452;2023-02-18T11:31:44;87045.34;;;15.70;43.20
65019;BME280;66069;51.164;-114.452;2023-02-18T11:34:24;87020.06;;;15.49;43.06
65019;BME280;66069;51.164;-114.452;2023-02-18T11:36:52;87051.44;;;15.67;43.21
65019;BME280;66069;51.164;-114.452;2023-02-18T11:39:25;87044.03;;;15.58;43.09
65019;BME280;66069;51.164;-114.452;2023-02-18T11:42:03;87029.75;;;15.56;42.79
65019;BME280;66069;51.164;-114.452;2023-02-18T11:44:35;87045.84;;;15.65;42.99
65019;BME280;66069;51.164;-114.452;2023-02-18T11:47:08;87031.66;;;15.55;43.21
65019;BME280;66069;51.164;-114.452;2023-02-18T11:50:43;87045.47;;;15.63;42.95
65019;BME280;66069;51.164;-114.452;2023-02-18T11:52:47;87051.16;;;15.61;42.99
65019;BME280;66069;51.164;-114.452;2023-02-18T11:57:48;87031.31;;;15.53;43.14
65019;BME280;66069;51.164;-114.452;2023-02-18T12:03:06;87035.03;;;15.56;43.12
65019;BME280;66069;51.164;-114.452;2023-02-18T12:05:36;87040.00;;;15.54;43.25
65019;BME280;66069;51.164;-114.452;2023-02-18T12:08:14;87030.38;;;15.44;42.96
65019;BME280;66069;51.164;-114.452;2023-02-18T12:10:47;87045.28;;;15.54;43.01
65019;BME280;66069;51.164;-114.452;2023-02-18T12:13:37;87055.00;;;15.57;43.21
65019;BME280;66069;51.164;-114.452;2023-02-18T12:24:41;87047.38;;;15.43;42.99
65019;BME280;66069;51.164;-114.452;2023-02-18T12:29:51;87045.91;;;15.42;42.97
65019;BME280;66069;51.164;-114.452;2023-02-18T12:46:06;87076.34;;;15.46;42.97
65019;BME280;66069;51.164;-114.452;2023-02-18T12:54:42;87074.88;;;15.45;43.02
65019;BME280;66069;51.164;-114.452;2023-02-18T13:10:47;87081.78;;;15.59;43.75
65019;BME280;66069;51.164;-114.452;2023-02-18T13:13:19;87061.13;;;15.54;43.56
65019;BME280;66069;51.164;-114.452;2023-02-18T13:15:51;87076.03;;;15.64;43.87
65019;BME280;66069;51.164;-114.452;2023-02-18T13:20:55;87079.63;;;15.74;43.97
65019;BME280;66069;51.164;-114.452;2023-02-18T13:23:27;87075.81;;;15.75;44.13
65019;BME280;66069;51.164;-114.452;2023-02-18T13:25:58;87061.19;;;15.70;44.43
65019;BME280;66069;51.164;-114.452;2023-02-18T13:39:56;87097.38;;;16.09;45.21
65019;BME280;66069;51.164;-114.452;2023-02-18T13:53:11;87084.75;;;16.33;45.22
65019;BME280;66069;51.164;-114.452;2023-02-18T13:55:53;87106.91;;;16.39;45.12
65019;BME280;66069;51.164;-114.452;2023-02-18T14:06:15;87094.78;;;16.58;45.25
65019;BME280;66069;51.164;-114.452;2023-02-18T14:08:43;87075.78;;;16.47;45.23
65019;BME280;66069;51.164;-114.452;2023-02-18T14:14:30;87094.91;;;16.71;44.91
65019;BME280;66069;51.164;-114.452;2023-02-18T14:19:38;87083.47;;;16.74;45.37
65019;BME280;66069;51.164;-114.452;2023-02-18T14:25:30;87091.81;;;16.89;45.21
65019;BME280;66069;51.164;-114.452;2023-02-18T14:27:52;87082.81;;;16.86;45.13
65019;BME280;66069;51.164;-114.452;2023-02-18T14:30:24;87091.97;;;16.98;44.95
65019;BME280;66069;51.164;-114.452;2023-02-18T14:32:59;87097.28;;;16.98;45.05
65019;BME280;66069;51.164;-114.452;2023-02-18T14:38:26;87109.50;;;17.08;45.03
65019;BME280;66069;51.164;-114.452;2023-02-18T14:43:40;87107.44;;;17.16;44.83
65019;BME280;66069;51.164;-114.452;2023-02-18T14:49:37;87113.69;;;17.22;44.89
65019;BME280;66069;51.164;-114.452;2023-02-18T14:52:05;87108.06;;;17.20;44.89
65019;BME280;66069;51.164;-114.452;2023-02-18T14:54:35;87107.31;;;17.19;44.88
65019;BME280;66069;51.164;-114.452;2023-02-18T14:57:13;87115.50;;;17.25;44.77
65019;BME280;66069;51.164;-114.452;2023-02-18T14:59:42;87119.13;;;17.31;44.89
65019;BME280;66069;51.164;-114.452;2023-02-18T15:02:28;87108.66;;;17.28;44.76
65019;BME280;66069;51.164;-114.452;2023-02-18T15:05:35;87118.22;;;17.38;44.63
65019;BME280;66069;51.164;-114.452;2023-02-18T15:08:13;87126.50;;;17.40;44.49
65019;BME280;66069;51.164;-114.452;2023-02-18T15:10:47;87125.75;;;17.39;44.78
65019;BME280;66069;51.164;-114.452;2023-02-18T15:13:30;87133.19;;;17.44;44.85
65019;BME280;66069;51.164;-114.452;2023-02-18T15:16:00;87117.16;;;17.35;44.62
65019;BME280;66069;51.164;-114.452;2023-02-18T15:18:32;87131.19;;;17.48;44.68
65019;BME280;66069;51.164;-114.452;2023-02-18T15:21:01;87129.28;;;17.49;44.68